sensor_id;sensor_type;location;lat;lon;timestamp;pressure;altitude;pressure_sealevel;temperature;humidity
57628;BME280;43451;49.060;10.616;2024-02-15T00:00:27;97218.69;;;8.77;100.00
57628;BME280;43451;49.060;10.616;2024-02-15T00:02:53;97215.41;;;8.65;100.00
57628;BME280;43451;49.060;10.616;2024-02-15T00:05:19;97205.34;;;8.65;100.00
57628;BME280;43451;49.060;10.616;2024-02-15T00:07:45;97196.91;;;8.70;100.00
57628;BME280;43451;49.060;10.616;2024-02-15T00:10:13;97202.44;;;8.77;100.00
57628;BME280;43451;49.060;10.616;2024-02-15T00:12:39;97203.16;;;8.74;100.00
57628;BME280;43451;49.060;10.616;2024-02-15T00:15:05;97201.69;;;8.80;100.00
57628;BME280;43451;49.060;10.616;2024-02-15T00:17:31;97197.94;;;8.89;100.00
57628;BME280;43451;49.060;10.616;2024-02-15T00:19:57;97210.25;;;8.82;100.00
57628;BME280;43451;49.060;10.616;2024-02-15T00:22:23;97205.59;;;8.83;100.00
57628;BME280;43451;49.060;10.616;2024-02-15T00:24:49;97209.25;;;8.68;100.00
57628;BME280;43451;49.060;10.616;2024-02-15T00:27:15;97196.91;;;8.70;100.00
57628;BME280;43451;49.060;10.616;2024-02-15T00:29:41;97210.81;;;8.69;100.00
57628;BME280;43451;49.060;10.616;2024-02-15T00:32:08;97206.03;;;8.58;100.00
57628;BME280;43451;49.060;10.616;2024-02-15T00:34:36;97205.56;;;8.53;100.00
57628;BME280;43451;49.060;10.616;2024-02-15T00:37:03;97213.81;;;8.60;100.00
57628;BME280;43451;49.060;10.616;2024-02-15T00:39:29;97206.94;;;8.66;100.00
57628;BME280;43451;49.060;10.616;2024-02-15T00:41:56;97210.81;;;8.69;100.00
57628;BME280;43451;49.060;10.616;2024-02-15T00:44:22;97206.19;;;8.69;100.00
57628;BME280;43451;49.060;10.616;2024-02-15T00:46:49;97198.63;;;8.82;100.00
57628;BME280;43451;49.060;10.616;2024-02-15T00:49:14;97194.28;;;8.77;100.00
57628;BME280;43451;49.060;10.616;2024-02-15T00:51:40;97196.50;;;8.68;100.00
57628;BME280;43451;49.060;10.616;2024-02-15T00:54:05;97186.72;;;8.60;100.00
57628;BME280;43451;49.060;10.616;2024-02-15T00:56:31;97179.66;;;8.52;100.00
57628;BME280;43451;49.060;10.616;2024-02-15T00:59:00;97190.78;;;8.47;100.00
57628;BME280;43451;49.060;10.616;2024-02-15T01:01:26;97189.66;;;8.48;100.00
57628;BME280;43451;49.060;10.616;2024-02-15T01:03:52;97192.72;;;8.46;100.00
57628;BME280;43451;49.060;10.616;2024-02-15T01:06:17;97191.72;;;8.31;100.00
57628;BME280;43451;49.060;10.616;2024-02-15T01:08:44;97202.38;;;8.21;100.00
57628;BME280;43451;49.060;10.616;2024-02-15T01:11:09;97208.47;;;8.14;100.00
57628;BME280;43451;49.060;10.616;2024-02-15T01:13:35;97214.91;;;8.06;100.00
57628;BME280;43451;49.060;10.616;2024-02-15T01:16:00;97211.00;;;8.03;100.00
57628;BME280;43451;49.060;10.616;2024-02-15T01:18:28;97213.28;;;8.01;100.00
57628;BME280;43451;49.060;10.616;2024-02-15T01:20:55;97216.03;;;8.05;100.00
57628;BME280;43451;49.060;10.616;2024-02-15T01:23:21;97216.47;;;8.07;100.00
57628;BME280;43451;49.060;10.616;2024-02-15T01:25:48;97219.81;;;8.23;100.00
57628;BME280;43451;49.060;10.616;2024-02-15T01:28:14;97212.59;;;8.31;100.00
57628;BME280;43451;49.060;10.616;2024-02-15T01:30:40;97205.81;;;8.41;100.00
57628;BME280;43451;49.060;10.616;2024-02-15T01:33:12;97203.19;;;8.48;100.00
57628;BME280;43451;49.060;10.616;2024-02-15T01:35:38;97196.03;;;8.63;100.00
57628;BME280;43451;49.060;10.616;2024-02-15T01:38:06;97195.25;;;8.62;100.00
57628;BME280;43451;49.060;10.616;2024-02-15T01:40:32;97199.94;;;8.65;100.00
57628;BME280;43451;49.060;10.616;2024-02-15T01:42:57;97195.38;;;8.69;100.00
57628;BME280;43451;49.060;10.616;2024-02-15T01:45:25;97188.19;;;8.54;100.00
57628;BME280;43451;49.060;10.616;2024-02-15T01:47:52;97202.22;;;8.36;100.00
57628;BME280;43451;49.060;10.616;2024-02-15T01:50:19;97204.81;;;8.29;100.00
57628;BME280;43451;49.060;10.616;2024-02-15T01:52:48;97196.19;;;8.20;100.00
57628;BME280;43451;49.060;10.616;2024-02-15T01:55:15;97200.75;;;8.16;100.00
57628;BME280;43451;49.060;10.616;2024-02-15T01:57:45;97194.44;;;8.08;100.00
57628;BME280;43451;49.060;10.616;2024-02-15T02:00:11;97193.13;;;8.22;100.00
57628;BME280;43451;49.060;10.616;2024-02-15T02:02:39;97197.00;;;8.24;100.00
57628;BME280;43451;49.060;10.616;2024-02-15T02:05:05;97191.66;;;8.28;100.00
57628;BME280;43451;49.060;10.616;2024-02-15T02:07:31;97188.25;;;8.31;100.00
57628;BME280;43451;49.060;10.616;2024-02-15T02:09:56;97189.38;;;8.30;100.00
57628;BME280;43451;49.060;10.616;2024-02-15T02:12:22;97190.94;;;8.31;100.00
57628;BME280;43451;49.060;10.616;2024-02-15T02:14:47;97187.38;;;8.27;100.00
57628;BME280;43451;49.060;10.616;2024-02-15T02:17:13;97190.25;;;8.11;100.00
57628;BME280;43451;49.060;10.616;2024-02-15T02:19:41;97185.19;;;8.09;100.00
57628;BME280;43451;49.060;10.616;2024-02-15T02:22:08;97179.41;;;8.11;100.00
57628;BME280;43451;49.060;10.616;2024-02-15T02:24:59;97182.31;;;8.22;100.00
57628;BME280;43451;49.060;10.616;2024-02-15T02:27:29;97187.22;;;8.16;100.00
57628;BME280;43451;49.060;10.616;2024-02-15T02:29:55;97179.22;;;8.23;100.00
57628;BME280;43451;49.060;10.616;2024-02-15T02:32:22;97179.88;;;8.17;100.00
57628;BME280;43451;49.060;10.616;2024-02-15T02:34:47;97185.53;;;8.31;100.00
57628;BME280;43451;49.060;10.616;2024-02-15T02:37:13;97168.94;;;8.36;100.00
57628;BME280;43451;49.060;10.616;2024-02-15T02:39:39;97176.22;;;8.28;100.00
57628;BME280;43451;49.060;10.616;2024-02-15T02:42:05;97179.31;;;8.30;100.00
57628;BME280;43451;49.060;10.616;2024-02-15T02:44:30;97176.03;;;8.41;100.00
57628;BME280;43451;49.060;10.616;2024-02-15T02:46:56;97181.19;;;8.26;100.00
57628;BME280;43451;49.060;10.616;2024-02-15T02:49:21;97179.84;;;8.13;100.00
57628;BME280;43451;49.060;10.616;2024-02-15T02:51:47;97171.25;;;8.07;100.00
57628;BME280;43451;49.060;10.616;2024-02-15T02:54:12;97180.75;;;7.98;100.00
57628;BME280;43451;49.060;10.616;2024-02-15T02:56:40;97181.25;;;8.03;100.00
57628;BME280;43451;49.060;10.616;2024-02-15T02:59:07;97183.47;;;7.98;100.00
57628;BME280;43451;49.060;10.616;2024-02-15T03:01:33;97181.47;;;7.95;100.00
57628;BME280;43451;49.060;10.616;2024-02-15T03:03:58;97172.53;;;7.90;100.00
57628;BME280;43451;49.060;10.616;2024-02-15T03:06:24;97173.25;;;7.87;100.00
57628;BME280;43451;49.060;10.616;2024-02-15T03:08:55;97174.91;;;7.96;100.00
57628;BME280;43451;49.060;10.616;2024-02-15T03:11:20;97177.91;;;7.87;100.00
57628;BME280;43451;49.060;10.616;2024-02-15T03:13:47;97174.34;;;7.83;100.00
57628;BME280;43451;49.060;10.616;2024-02-15T03:16:13;97175.44;;;7.78;100.00
57628;BME280;43451;49.060;10.616;2024-02-15T03:18:39;97187.84;;;7.83;100.00
57628;BME280;43451;49.060;10.616;2024-02-15T03:21:06;97184.75;;;7.81;100.00
57628;BME280;43451;49.060;10.616;2024-02-15T03:23:33;97182.88;;;7.85;100.00
57628;BME280;43451;49.060;10.616;2024-02-15T03:26:01;97186.59;;;8.00;100.00
57628;BME280;43451;49.060;10.616;2024-02-15T03:28:27;97175.78;;;8.00;100.00
57628;BME280;43451;49.060;10.616;2024-02-15T03:30:52;97177.22;;;7.94;100.00
57628;BME280;43451;49.060;10.616;2024-02-15T03:33:18;97183.53;;;7.78;100.00
57628;BME280;43451;49.060;10.616;2024-02-15T03:35:43;97184.59;;;7.74;100.00
57628;BME280;43451;49.060;10.616;2024-02-15T03:38:09;97183.13;;;7.76;100.00
57628;BME280;43451;49.060;10.616;2024-02-15T03:40:35;97189.63;;;7.72;100.00
57628;BME280;43451;49.060;10.616;2024-02-15T03:43:01;97185.66;;;7.65;100.00
57628;BME280;43451;49.060;10.616;2024-02-15T03:45:31;97196.75;;;7.60;100.00
57628;BME280;43451;49.060;10.616;2024-02-15T03:47:57;97188.97;;;7.55;100.00
57628;BME280;43451;49.060;10.616;2024-02-15T03:50:22;97193.16;;;7.53;100.00
57628;BME280;43451;49.060;10.616;2024-02-15T03:52:49;97185.22;;;7.63;100.00
57628;BME280;43451;49.060;10.616;2024-02-15T03:55:15;97182.09;;;7.61;100.00
57628;BME280;43451;49.060;10.616;2024-02-15T03:57:40;97184.25;;;7.52;100.00
57628;BME280;43451;49.060;10.616;2024-02-15T04:00:08;97184.13;;;7.45;100.00
57628;BME280;43451;49.060;10.616;2024-02-15T04:02:36;97186.47;;;7.47;100.00
57628;BME280;43451;49.060;10.616;2024-02-15T04:05:02;97187.25;;;7.47;100.00
57628;BME280;43451;49.060;10.616;2024-02-15T04:07:30;97186.34;;;7.39;100.00
57628;BME280;43451;49.060;10.616;2024-02-15T04:09:56;97188.19;;;7.35;100.00
57628;BME280;43451;49.060;10.616;2024-02-15T04:12:21;97189.28;;;7.31;100.00
57628;BME280;43451;49.060;10.616;2024-02-15T04:14:47;97190.06;;;7.31;100.00
57628;BME280;43451;49.060;10.616;2024-02-15T04:17:14;97190.00;;;7.28;100.00
57628;BME280;43451;49.060;10.616;2024-02-15T04:19:45;97185.31;;;7.25;100.00
57628;BME280;43451;49.060;10.616;2024-02-15T04:22:12;97182.53;;;7.21;100.00
57628;BME280;43451;49.060;10.616;2024-02-15T04:24:38;97197.47;;;7.15;100.00
57628;BME280;43451;49.060;10.616;2024-02-15T04:27:08;97189.16;;;7.24;100.00
57628;BME280;43451;49.060;10.616;2024-02-15T04:29:38;97183.03;;;7.27;100.00
57628;BME280;43451;49.060;10.616;2024-02-15T04:32:07;97185.69;;;7.46;100.00
57628;BME280;43451;49.060;10.616;2024-02-15T04:34:34;97177.22;;;7.48;100.00
57628;BME280;43451;49.060;10.616;2024-02-15T04:37:00;97181.59;;;7.33;100.00
57628;BME280;43451;49.060;10.616;2024-02-15T04:39:26;97184.78;;;7.38;100.00
57628;BME280;43451;49.060;10.616;2024-02-15T04:41:55;97186.91;;;7.49;100.00
57628;BME280;43451;49.060;10.616;2024-02-15T04:44:21;97181.66;;;7.36;100.00
57628;BME280;43451;49.060;10.616;2024-02-15T04:46:47;97186.91;;;7.29;100.00
57628;BME280;43451;49.060;10.616;2024-02-15T04:49:13;97183.75;;;7.24;100.00
57628;BME280;43451;49.060;10.616;2024-02-15T04:51:39;97180.88;;;7.16;100.00
57628;BME280;43451;49.060;10.616;2024-02-15T04:54:07;97187.81;;;7.14;100.00
57628;BME280;43451;49.060;10.616;2024-02-15T04:56:33;97170.72;;;7.10;100.00
57628;BME280;43451;49.060;10.616;2024-02-15T04:58:58;97183.41;;;7.06;100.00
57628;BME280;43451;49.060;10.616;2024-02-15T05:01:24;97187.19;;;7.01;100.00
57628;BME280;43451;49.060;10.616;2024-02-15T05:03:49;97187.47;;;6.96;100.00
57628;BME280;43451;49.060;10.616;2024-02-15T05:06:15;97196.63;;;6.91;100.00
57628;BME280;43451;49.060;10.616;2024-02-15T05:08:41;97195.34;;;6.85;100.00
57628;BME280;43451;49.060;10.616;2024-02-15T05:11:10;97205.28;;;6.81;100.00
57628;BME280;43451;49.060;10.616;2024-02-15T05:13:45;97201.38;;;6.79;100.00
57628;BME280;43451;49.060;10.616;2024-02-15T05:16:11;97198.75;;;6.82;100.00
57628;BME280;43451;49.060;10.616;2024-02-15T05:18:36;97204.44;;;6.77;100.00
57628;BME280;43451;49.060;10.616;2024-02-15T05:21:05;97194.78;;;6.76;100.00
57628;BME280;43451;49.060;10.616;2024-02-15T05:23:35;97190.09;;;6.73;100.00
57628;BME280;43451;49.060;10.616;2024-02-15T05:26:01;97196.34;;;6.77;100.00
57628;BME280;43451;49.060;10.616;2024-02-15T05:28:28;97194.00;;;6.76;100.00
57628;BME280;43451;49.060;10.616;2024-02-15T05:31:19;97202.44;;;6.74;100.00
57628;BME280;43451;49.060;10.616;2024-02-15T05:33:51;97204.00;;;6.75;100.00
57628;BME280;43451;49.060;10.616;2024-02-15T05:36:18;97200.88;;;6.73;100.00
57628;BME280;43451;49.060;10.616;2024-02-15T05:38:49;97210.53;;;6.74;100.00
57628;BME280;43451;49.060;10.616;2024-02-15T05:41:15;97203.72;;;6.80;100.00
57628;BME280;43451;49.060;10.616;2024-02-15T05:43:41;97206.00;;;6.78;100.00
57628;BME280;43451;49.060;10.616;2024-02-15T05:46:08;97206.56;;;6.87;100.00
57628;BME280;43451;49.060;10.616;2024-02-15T05:48:34;97205.31;;;7.20;100.00
57628;BME280;43451;49.060;10.616;2024-02-15T05:51:04;97194.75;;;7.34;100.00
57628;BME280;43451;49.060;10.616;2024-02-15T05:53:30;97201.44;;;7.21;100.00
57628;BME280;43451;49.060;10.616;2024-02-15T05:55:56;97201.44;;;7.21;100.00
57628;BME280;43451;49.060;10.616;2024-02-15T05:58:25;97197.91;;;7.17;100.00
57628;BME280;43451;49.060;10.616;2024-02-15T06:00:50;97202.44;;;7.13;100.00
57628;BME280;43451;49.060;10.616;2024-02-15T06:03:17;97197.75;;;7.10;100.00
57628;BME280;43451;49.060;10.616;2024-02-15T06:05:43;97194.50;;;7.20;100.00
57628;BME280;43451;49.060;10.616;2024-02-15T06:08:09;97200.88;;;7.12;100.00
57628;BME280;43451;49.060;10.616;2024-02-15T06:10:37;97198.19;;;7.12;100.00
57628;BME280;43451;49.060;10.616;2024-02-15T06:13:03;97199.81;;;7.16;100.00
57628;BME280;43451;49.060;10.616;2024-02-15T06:15:29;97196.66;;;7.34;100.00
57628;BME280;43451;49.060;10.616;2024-02-15T06:17:55;97180.59;;;7.64;100.00
57628;BME280;43451;49.060;10.616;2024-02-15T06:20:20;97185.03;;;7.76;100.00
57628;BME280;43451;49.060;10.616;2024-02-15T06:22:47;97176.16;;;7.75;100.00
57628;BME280;43451;49.060;10.616;2024-02-15T06:25:13;97180.66;;;7.67;100.00
57628;BME280;43451;49.060;10.616;2024-02-15T06:27:40;97186.59;;;7.54;100.00
57628;BME280;43451;49.060;10.616;2024-02-15T06:30:08;97192.31;;;7.49;100.00
57628;BME280;43451;49.060;10.616;2024-02-15T06:32:53;97200.59;;;7.36;100.00
57628;BME280;43451;49.060;10.616;2024-02-15T06:35:37;97193.91;;;7.30;100.00
57628;BME280;43451;49.060;10.616;2024-02-15T06:38:22;97201.19;;;7.49;100.00
57628;BME280;43451;49.060;10.616;2024-02-15T06:41:07;97204.25;;;7.48;100.00
57628;BME280;43451;49.060;10.616;2024-02-15T06:43:32;97203.28;;;7.36;100.00
57628;BME280;43451;49.060;10.616;2024-02-15T06:46:00;97217.97;;;7.39;100.00
57628;BME280;43451;49.060;10.616;2024-02-15T06:48:26;97208.06;;;7.66;100.00
57628;BME280;43451;49.060;10.616;2024-02-15T06:50:52;97199.22;;;7.69;100.00
57628;BME280;43451;49.060;10.616;2024-02-15T06:53:18;97201.63;;;7.97;100.00
57628;BME280;43451;49.060;10.616;2024-02-15T06:55:46;97194.41;;;8.05;100.00
57628;BME280;43451;49.060;10.616;2024-02-15T06:58:16;97196.50;;;7.92;100.00
57628;BME280;43451;49.060;10.616;2024-02-15T07:00:43;97196.78;;;7.83;100.00
57628;BME280;43451;49.060;10.616;2024-02-15T07:03:08;97203.31;;;7.82;100.00
57628;BME280;43451;49.060;10.616;2024-02-15T07:05:34;97195.91;;;7.79;100.00
57628;BME280;43451;49.060;10.616;2024-02-15T07:08:00;97194.41;;;7.82;100.00
57628;BME280;43451;49.060;10.616;2024-02-15T07:10:26;97198.63;;;7.79;100.00
57628;BME280;43451;49.060;10.616;2024-02-15T07:12:51;97195.50;;;7.77;100.00
57628;BME280;43451;49.060;10.616;2024-02-15T07:15:17;97198.56;;;7.76;100.00
57628;BME280;43451;49.060;10.616;2024-02-15T07:17:43;97202.91;;;7.80;100.00
57628;BME280;43451;49.060;10.616;2024-02-15T07:20:11;97194.81;;;8.07;100.00
57628;BME280;43451;49.060;10.616;2024-02-15T07:22:37;97192.41;;;8.25;100.00
57628;BME280;43451;49.060;10.616;2024-02-15T07:25:04;97189.22;;;8.19;100.00
57628;BME280;43451;49.060;10.616;2024-02-15T07:27:30;97191.44;;;8.13;100.00
57628;BME280;43451;49.060;10.616;2024-02-15T07:29:55;97182.13;;;8.11;100.00
57628;BME280;43451;49.060;10.616;2024-02-15T07:32:21;97186.84;;;8.18;100.00
57628;BME280;43451;49.060;10.616;2024-02-15T07:34:47;97186.03;;;8.13;100.00
57628;BME280;43451;49.060;10.616;2024-02-15T07:37:13;97204.50;;;8.08;100.00
57628;BME280;43451;49.060;10.616;2024-02-15T07:39:41;97200.72;;;8.12;100.00
57628;BME280;43451;49.060;10.616;2024-02-15T07:42:07;97193.38;;;8.13;100.00
57628;BME280;43451;49.060;10.616;2024-02-15T07:44:34;97198.34;;;8.11;100.00
57628;BME280;43451;49.060;10.616;2024-02-15T07:47:02;97194.88;;;8.37;100.00
57628;BME280;43451;49.060;10.616;2024-02-15T07:49:27;97188.75;;;8.40;100.00
57628;BME280;43451;49.060;10.616;2024-02-15T07:51:53;97181.84;;;8.43;100.00
57628;BME280;43451;49.060;10.616;2024-02-15T07:54:19;97185.09;;;8.55;100.00
57628;BME280;43451;49.060;10.616;2024-02-15T07:56:48;97186.44;;;8.39;100.00
57628;BME280;43451;49.060;10.616;2024-02-15T07:59:14;97185.69;;;8.42;100.00
57628;BME280;43451;49.060;10.616;2024-02-15T08:01:42;97187.69;;;8.45;100.00
57628;BME280;43451;49.060;10.616;2024-02-15T08:04:08;97187.97;;;8.40;100.00
57628;BME280;43451;49.060;10.616;2024-02-15T08:06:34;97175.69;;;8.46;100.00
57628;BME280;43451;49.060;10.616;2024-02-15T08:09:02;97185.50;;;8.54;100.00
57628;BME280;43451;49.060;10.616;2024-02-15T08:11:30;97182.06;;;8.57;100.00
57628;BME280;43451;49.060;10.616;2024-02-15T08:13:56;97180.53;;;8.59;100.00
57628;BME280;43451;49.060;10.616;2024-02-15T08:16:25;97178.97;;;8.58;100.00
57628;BME280;43451;49.060;10.616;2024-02-15T08:18:54;97186.00;;;8.63;100.00
57628;BME280;43451;49.060;10.616;2024-02-15T08:21:27;97182.22;;;8.71;100.00
57628;BME280;43451;49.060;10.616;2024-02-15T08:23:54;97175.28;;;8.74;100.00
57628;BME280;43451;49.060;10.616;2024-02-15T08:26:23;97166.69;;;8.68;100.00
57628;BME280;43451;49.060;10.616;2024-02-15T08:28:48;97167.13;;;8.70;100.00
57628;BME280;43451;49.060;10.616;2024-02-15T08:31:14;97162.88;;;8.69;100.00
57628;BME280;43451;49.060;10.616;2024-02-15T08:33:41;97160.25;;;8.76;100.00
57628;BME280;43451;49.060;10.616;2024-02-15T08:36:08;97162.94;;;8.76;100.00
57628;BME280;43451;49.060;10.616;2024-02-15T08:38:36;97163.81;;;8.84;100.00
57628;BME280;43451;49.060;10.616;2024-02-15T08:41:03;97160.78;;;8.89;100.00
57628;BME280;43451;49.060;10.616;2024-02-15T08:43:32;97152.00;;;8.99;100.00
57628;BME280;43451;49.060;10.616;2024-02-15T08:45:58;97148.19;;;9.04;100.00
57628;BME280;43451;49.060;10.616;2024-02-15T08:48:24;97150.97;;;9.11;100.00
57628;BME280;43451;49.060;10.616;2024-02-15T08:50:50;97140.19;;;9.18;100.00
57628;BME280;43451;49.060;10.616;2024-02-15T08:53:16;97142.63;;;9.27;100.00
57628;BME280;43451;49.060;10.616;2024-02-15T08:55:45;97148.19;;;9.45;100.00
57628;BME280;43451;49.060;10.616;2024-02-15T08:58:10;97140.53;;;9.54;100.00
57628;BME280;43451;49.060;10.616;2024-02-15T09:00:36;97136.72;;;9.59;100.00
57628;BME280;43451;49.060;10.616;2024-02-15T09:03:02;97134.78;;;9.63;100.00
57628;BME280;43451;49.060;10.616;2024-02-15T09:05:28;97136.78;;;9.69;100.00
57628;BME280;43451;49.060;10.616;2024-02-15T09:07:54;97134.53;;;9.79;100.00
57628;BME280;43451;49.060;10.616;2024-02-15T09:10:20;97129.28;;;10.00;100.00
57628;BME280;43451;49.060;10.616;2024-02-15T09:12:48;97143.31;;;10.09;100.00
57628;BME280;43451;49.060;10.616;2024-02-15T09:15:14;97132.06;;;10.14;100.00
57628;BME280;43451;49.060;10.616;2024-02-15T09:17:40;97126.81;;;10.36;100.00
57628;BME280;43451;49.060;10.616;2024-02-15T09:20:10;97117.25;;;10.60;100.00
57628;BME280;43451;49.060;10.616;2024-02-15T09:22:57;97118.41;;;10.62;100.00
57628;BME280;43451;49.060;10.616;2024-02-15T09:25:23;97109.56;;;10.87;100.00
57628;BME280;43451;49.060;10.616;2024-02-15T09:27:49;97108.09;;;11.04;100.00
57628;BME280;43451;49.060;10.616;2024-02-15T09:30:16;97096.84;;;11.20;100.00
57628;BME280;43451;49.060;10.616;2024-02-15T09:32:42;97094.16;;;11.48;100.00
57628;BME280;43451;49.060;10.616;2024-02-15T09:35:09;97097.25;;;11.82;100.00
57628;BME280;43451;49.060;10.616;2024-02-15T09:37:38;97095.72;;;12.06;100.00
57628;BME280;43451;49.060;10.616;2024-02-15T09:40:13;97090.25;;;12.17;100.00
57628;BME280;43451;49.060;10.616;2024-02-15T09:42:40;97091.41;;;12.20;100.00
57628;BME280;43451;49.060;10.616;2024-02-15T09:45:07;97080.88;;;12.29;100.00
57628;BME280;43451;49.060;10.616;2024-02-15T09:47:36;97073.84;;;12.35;100.00
57628;BME280;43451;49.060;10.616;2024-02-15T09:50:08;97080.84;;;12.43;100.00
57628;BME280;43451;49.060;10.616;2024-02-15T09:52:43;97069.16;;;12.46;100.00
57628;BME280;43451;49.060;10.616;2024-02-15T09:55:10;97075.38;;;12.47;100.00
57628;BME280;43451;49.060;10.616;2024-02-15T09:57:42;97074.56;;;12.53;100.00
57628;BME280;43451;49.060;10.616;2024-02-15T10:00:10;97081.56;;;12.54;100.00
57628;BME280;43451;49.060;10.616;2024-02-15T10:02:50;97073.81;;;12.46;100.00
57628;BME280;43451;49.060;10.616;2024-02-15T10:05:17;97075.38;;;12.47;100.00
57628;BME280;43451;49.060;10.616;2024-02-15T10:07:43;97073.03;;;12.49;100.00
57628;BME280;43451;49.060;10.616;2024-02-15T10:10:20;97078.81;;;12.62;100.00
57628;BME280;43451;49.060;10.616;2024-02-15T10:12:50;97079.94;;;12.75;100.00
57628;BME280;43451;49.060;10.616;2024-02-15T10:15:37;97088.09;;;12.82;100.00
57628;BME280;43451;49.060;10.616;2024-02-15T10:18:05;97078.34;;;12.77;100.00
57628;BME280;43451;49.060;10.616;2024-02-15T10:20:34;97082.31;;;12.69;100.00
57628;BME280;43451;49.060;10.616;2024-02-15T10:25:29;97077.94;;;12.83;100.00
57628;BME280;43451;49.060;10.616;2024-02-15T10:28:05;97073.72;;;12.71;100.00
57628;BME280;43451;49.060;10.616;2024-02-15T10:30:34;97075.63;;;12.85;100.00
57628;BME280;43451;49.060;10.616;2024-02-15T10:33:00;97079.94;;;12.78;100.00
57628;BME280;43451;49.060;10.616;2024-02-15T10:35:26;97084.56;;;12.85;100.00
57628;BME280;43451;49.060;10.616;2024-02-15T10:37:51;97080.63;;;12.90;100.00
57628;BME280;43451;49.060;10.616;2024-02-15T10:40:19;97082.59;;;12.89;100.00
57628;BME280;43451;49.060;10.616;2024-02-15T10:42:48;97078.31;;;12.88;100.00
57628;BME280;43451;49.060;10.616;2024-02-15T10:45:15;97066.19;;;12.96;100.00
57628;BME280;43451;49.060;10.616;2024-02-15T10:47:46;97067.75;;;12.97;100.00
57628;BME280;43451;49.060;10.616;2024-02-15T10:50:13;97063.50;;;12.89;100.00
57628;BME280;43451;49.060;10.616;2024-02-15T10:52:57;97062.66;;;12.99;100.00
57628;BME280;43451;49.060;10.616;2024-02-15T10:55:43;97054.00;;;13.15;100.00
57628;BME280;43451;49.060;10.616;2024-02-15T10:58:10;97050.00;;;13.34;100.00
57628;BME280;43451;49.060;10.616;2024-02-15T11:00:38;97053.13;;;13.33;100.00
57628;BME280;43451;49.060;10.616;2024-02-15T11:03:07;97050.44;;;13.26;97.45
57628;BME280;43451;49.060;10.616;2024-02-15T11:05:35;97050.09;;;13.16;100.00
57628;BME280;43451;49.060;10.616;2024-02-15T11:08:10;97035.19;;;13.35;100.00
57628;BME280;43451;49.060;10.616;2024-02-15T11:10:37;97024.94;;;13.46;100.00
57628;BME280;43451;49.060;10.616;2024-02-15T11:13:03;97021.06;;;13.44;95.17
57628;BME280;43451;49.060;10.616;2024-02-15T11:18:03;97008.50;;;13.54;93.47
57628;BME280;43451;49.060;10.616;2024-02-15T11:23:03;97004.28;;;13.45;97.06
57628;BME280;43451;49.060;10.616;2024-02-15T11:25:32;96995.34;;;13.41;100.00
57628;BME280;43451;49.060;10.616;2024-02-15T11:30:46;96997.78;;;13.32;100.00
57628;BME280;43451;49.060;10.616;2024-02-15T11:33:27;96999.25;;;13.40;100.00
57628;BME280;43451;49.060;10.616;2024-02-15T11:38:31;97000.00;;;13.48;100.00
57628;BME280;43451;49.060;10.616;2024-02-15T11:43:49;96984.69;;;13.58;100.00
57628;BME280;43451;49.060;10.616;2024-02-15T11:46:22;96975.91;;;13.77;100.00
57628;BME280;43451;49.060;10.616;2024-02-15T11:48:53;96970.53;;;13.66;100.00
57628;BME280;43451;49.060;10.616;2024-02-15T11:54:05;96971.47;;;13.90;100.00
57628;BME280;43451;49.060;10.616;2024-02-15T11:56:54;96968.22;;;14.03;100.00
57628;BME280;43451;49.060;10.616;2024-02-15T11:59:41;96968.56;;;14.08;97.39
57628;BME280;43451;49.060;10.616;2024-02-15T12:02:38;96964.25;;;14.07;100.00
57628;BME280;43451;49.060;10.616;2024-02-15T12:05:22;96960.81;;;14.03;97.24
57628;BME280;43451;49.060;10.616;2024-02-15T12:08:06;96959.94;;;14.10;100.00
57628;BME280;43451;49.060;10.616;2024-02-15T12:11:00;96967.13;;;13.97;100.00
57628;BME280;43451;49.060;10.616;2024-02-15T12:13:53;96958.41;;;14.09;100.00
57628;BME280;43451;49.060;10.616;2024-02-15T12:16:37;96961.00;;;14.20;100.00
57628;BME280;43451;49.060;10.616;2024-02-15T12:19:21;96958.69;;;14.18;97.82
57628;BME280;43451;49.060;10.616;2024-02-15T12:21:49;96956.84;;;14.08;90.73
57628;BME280;43451;49.060;10.616;2024-02-15T12:24:15;96950.88;;;14.16;99.43
57628;BME280;43451;49.060;10.616;2024-02-15T12:26:42;96954.75;;;14.19;98.74
57628;BME280;43451;49.060;10.616;2024-02-15T12:29:08;96956.88;;;14.04;100.00
57628;BME280;43451;49.060;10.616;2024-02-15T12:31:35;96954.31;;;13.90;99.49
57628;BME280;43451;49.060;10.616;2024-02-15T12:34:04;96956.59;;;13.95;100.00
57628;BME280;43451;49.060;10.616;2024-02-15T12:36:36;96954.47;;;14.10;99.48
57628;BME280;43451;49.060;10.616;2024-02-15T12:39:04;96952.03;;;14.19;99.52
57628;BME280;43451;49.060;10.616;2024-02-15T12:41:47;96949.63;;;14.25;94.36
57628;BME280;43451;49.060;10.616;2024-02-15T12:44:16;96942.13;;;14.29;94.99
57628;BME280;43451;49.060;10.616;2024-02-15T12:46:42;96934.22;;;14.38;96.32
57628;BME280;43451;49.060;10.616;2024-02-15T12:49:09;96936.78;;;14.49;97.31
57628;BME280;43451;49.060;10.616;2024-02-15T12:51:39;96935.63;;;14.50;93.86
57628;BME280;43451;49.060;10.616;2024-02-15T12:54:09;96932.09;;;14.53;96.39
57628;BME280;43451;49.060;10.616;2024-02-15T12:56:35;96930.16;;;14.50;88.87
57628;BME280;43451;49.060;10.616;2024-02-15T12:59:01;96922.41;;;14.45;91.23
57628;BME280;43451;49.060;10.616;2024-02-15T13:01:28;96935.03;;;14.35;96.54
57628;BME280;43451;49.060;10.616;2024-02-15T13:03:54;96922.50;;;14.37;93.04
57628;BME280;43451;49.060;10.616;2024-02-15T13:06:20;96915.84;;;14.38;92.45
57628;BME280;43451;49.060;10.616;2024-02-15T13:08:49;96912.28;;;14.42;92.75
57628;BME280;43451;49.060;10.616;2024-02-15T13:11:14;96909.88;;;14.47;94.53